Main page
METAR-TAF:

METAR-TAF

Airports :

Maputo International Airport

Maputo, Mozambique

latitude: 25-55S, longitude: 032-34E, elevation: 39 m

Current weather observation

The report was made 32 minutes ago, at 11:00 UTC
Wind 12 kt from the North
Temperature 33°C
Humidity 30%
Pressure 1018 hPa
Visibility 10 km or more
Few clouds at a height of 3000 ft

METAR: FQMA 151100Z 36012KT 9999 FEW030 33/13 Q1018 WS RWY05 BECMG NSW

Time: 13:32 (11:32 UTC)

Forecast

The report was made 7 hours and 32 minutes ago, at 04:00 UTC
Forecast valid from 15 at 06 UTC to 16 at 12 UTC
Wind 8 kt from the South
Visibility 10 km or more
Broken clouds at a height of 2000 ft
Becoming
from 15 at 12 UTC to 15 at 14 UTC
Wind 12 kt from the Northeast
Becoming
from 15 at 18 UTC to 15 at 20 UTC
Wind 8 kt from the North
Few clouds at a height of 2000 ft

TAF: FQMA 150400Z 1506/1612 19008KT 9999 BKN020 BECMG 1512/1514 05012KT BECMG 1518/1520 35008KT FEW020 TX32/1513Z TN17/1603Z

Weather observations and forecasts of more than 4000 airports (METAR and TAF reports).

The available stations are represented by yellow and red dots on the map.

Hover mouse over dot to see the name of the station.

Then click to see weather observations and forecasts.

To change the map : click on the green buttons with a black cross to zoom in, on the green button with a dash to zoom out, or on the green arrows for adjacent maps.


METAR-TAF: